sensor_id;sensor_type;location;lat;lon;timestamp;temperature;humidity
69464;DHT22;56665;41.106;16.688;2023-09-08T00:00:25;24.66;74.84
69464;DHT22;56665;41.106;16.688;2023-09-08T00:03:29;24.63;74.58
69464;DHT22;56665;41.106;16.688;2023-09-08T00:06:34;24.59;74.32
69464;DHT22;56665;41.106;16.688;2023-09-08T00:09:38;24.56;74.50
69464;DHT22;56665;41.106;16.688;2023-09-08T00:12:43;24.53;74.22
69464;DHT22;56665;41.106;16.688;2023-09-08T00:15:46;24.51;74.40
69464;DHT22;56665;41.106;16.688;2023-09-08T00:18:51;24.46;74.26
69464;DHT22;56665;41.106;16.688;2023-09-08T00:21:56;24.48;74.01
69464;DHT22;56665;41.106;16.688;2023-09-08T00:25:01;24.49;73.90
69464;DHT22;56665;41.106;16.688;2023-09-08T00:28:05;24.51;73.72
69464;DHT22;56665;41.106;16.688;2023-09-08T00:31:09;24.51;73.52
69464;DHT22;56665;41.106;16.688;2023-09-08T00:34:14;24.46;73.37
69464;DHT22;56665;41.106;16.688;2023-09-08T00:37:17;24.49;73.16
69464;DHT22;56665;41.106;16.688;2023-09-08T00:40:30;24.51;72.57
69464;DHT22;56665;41.106;16.688;2023-09-08T00:43:34;24.48;72.59
69464;DHT22;56665;41.106;16.688;2023-09-08T00:46:39;24.43;72.20
69464;DHT22;56665;41.106;16.688;2023-09-08T00:49:43;24.41;71.78
69464;DHT22;56665;41.106;16.688;2023-09-08T00:52:47;24.36;71.37
69464;DHT22;56665;41.106;16.688;2023-09-08T00:55:51;24.32;70.83
69464;DHT22;56665;41.106;16.688;2023-09-08T00:58:55;24.28;70.38
69464;DHT22;56665;41.106;16.688;2023-09-08T01:01:59;24.25;69.75
69464;DHT22;56665;41.106;16.688;2023-09-08T01:05:04;24.19;69.17
69464;DHT22;56665;41.106;16.688;2023-09-08T01:08:08;24.14;69.25
69464;DHT22;56665;41.106;16.688;2023-09-08T01:11:13;24.11;69.24
69464;DHT22;56665;41.106;16.688;2023-09-08T01:14:20;24.12;68.69
69464;DHT22;56665;41.106;16.688;2023-09-08T01:17:23;24.09;68.20
69464;DHT22;56665;41.106;16.688;2023-09-08T01:24:21;24.08;67.21
69464;DHT22;56665;41.106;16.688;2023-09-08T01:27:25;24.04;66.86
69464;DHT22;56665;41.106;16.688;2023-09-08T01:30:29;24.01;66.87
69464;DHT22;56665;41.106;16.688;2023-09-08T01:33:35;23.97;66.78
69464;DHT22;56665;41.106;16.688;2023-09-08T01:36:39;23.97;66.61
69464;DHT22;56665;41.106;16.688;2023-09-08T01:39:43;23.93;66.59
69464;DHT22;56665;41.106;16.688;2023-09-08T01:42:47;23.91;66.31
69464;DHT22;56665;41.106;16.688;2023-09-08T01:45:51;23.88;66.19
69464;DHT22;56665;41.106;16.688;2023-09-08T01:48:55;23.87;66.09
69464;DHT22;56665;41.106;16.688;2023-09-08T01:51:59;23.88;65.85
69464;DHT22;56665;41.106;16.688;2023-09-08T01:55:03;23.83;65.88
69464;DHT22;56665;41.106;16.688;2023-09-08T01:58:08;23.84;65.74
69464;DHT22;56665;41.106;16.688;2023-09-08T02:01:12;23.83;65.95
69464;DHT22;56665;41.106;16.688;2023-09-08T02:04:17;23.78;66.18
69464;DHT22;56665;41.106;16.688;2023-09-08T02:07:20;23.73;66.29
69464;DHT22;56665;41.106;16.688;2023-09-08T02:10:30;23.70;66.28
69464;DHT22;56665;41.106;16.688;2023-09-08T02:13:34;23.63;66.17
69464;DHT22;56665;41.106;16.688;2023-09-08T02:16:37;23.54;66.72
69464;DHT22;56665;41.106;16.688;2023-09-08T02:19:41;23.50;66.66
69464;DHT22;56665;41.106;16.688;2023-09-08T02:22:46;23.46;66.70
69464;DHT22;56665;41.106;16.688;2023-09-08T02:25:53;23.39;67.16
69464;DHT22;56665;41.106;16.688;2023-09-08T02:28:57;23.37;67.28
69464;DHT22;56665;41.106;16.688;2023-09-08T02:32:02;23.33;67.15
69464;DHT22;56665;41.106;16.688;2023-09-08T02:35:07;23.30;67.26
69464;DHT22;56665;41.106;16.688;2023-09-08T02:38:11;23.30;67.30
69464;DHT22;56665;41.106;16.688;2023-09-08T02:41:14;23.33;67.07
69464;DHT22;56665;41.106;16.688;2023-09-08T02:44:18;23.34;66.69
69464;DHT22;56665;41.106;16.688;2023-09-08T02:47:23;23.36;66.61
69464;DHT22;56665;41.106;16.688;2023-09-08T02:50:28;23.39;66.48
69464;DHT22;56665;41.106;16.688;2023-09-08T02:53:32;23.42;66.29
69464;DHT22;56665;41.106;16.688;2023-09-08T02:56:36;23.40;66.12
69464;DHT22;56665;41.106;16.688;2023-09-08T02:59:40;23.42;66.10
69464;DHT22;56665;41.106;16.688;2023-09-08T03:02:45;23.43;66.16
69464;DHT22;56665;41.106;16.688;2023-09-08T03:05:53;23.42;66.03
69464;DHT22;56665;41.106;16.688;2023-09-08T03:08:59;23.40;66.08
69464;DHT22;56665;41.106;16.688;2023-09-08T03:12:02;23.39;66.22
69464;DHT22;56665;41.106;16.688;2023-09-08T03:15:07;23.34;66.48
69464;DHT22;56665;41.106;16.688;2023-09-08T03:18:10;23.27;66.86
69464;DHT22;56665;41.106;16.688;2023-09-08T03:21:14;23.22;67.08
69464;DHT22;56665;41.106;16.688;2023-09-08T03:24:18;23.19;67.17
69464;DHT22;56665;41.106;16.688;2023-09-08T03:27:21;23.22;67.14
69464;DHT22;56665;41.106;16.688;2023-09-08T03:30:26;23.20;66.95
69464;DHT22;56665;41.106;16.688;2023-09-08T03:33:29;23.22;67.02
69464;DHT22;56665;41.106;16.688;2023-09-08T03:36:33;23.20;66.91
69464;DHT22;56665;41.106;16.688;2023-09-08T03:39:39;23.22;66.93
69464;DHT22;56665;41.106;16.688;2023-09-08T03:42:44;23.20;66.74
69464;DHT22;56665;41.106;16.688;2023-09-08T03:45:48;23.19;66.97
69464;DHT22;56665;41.106;16.688;2023-09-08T03:48:51;23.16;66.84
69464;DHT22;56665;41.106;16.688;2023-09-08T03:51:57;23.12;66.74
69464;DHT22;56665;41.106;16.688;2023-09-08T03:55:01;23.09;67.13
69464;DHT22;56665;41.106;16.688;2023-09-08T03:58:05;23.06;67.38
69464;DHT22;56665;41.106;16.688;2023-09-08T04:01:08;23.07;66.94
69464;DHT22;56665;41.106;16.688;2023-09-08T04:04:12;23.06;67.33
69464;DHT22;56665;41.106;16.688;2023-09-08T04:07:16;23.09;67.37
69464;DHT22;56665;41.106;16.688;2023-09-08T04:10:21;23.07;67.27
69464;DHT22;56665;41.106;16.688;2023-09-08T04:13:25;23.03;67.26
69464;DHT22;56665;41.106;16.688;2023-09-08T04:16:30;23.02;67.26
69464;DHT22;56665;41.106;16.688;2023-09-08T04:19:33;22.96;67.30
69464;DHT22;56665;41.106;16.688;2023-09-08T04:22:37;22.91;67.65
69464;DHT22;56665;41.106;16.688;2023-09-08T04:25:41;22.92;67.49
69464;DHT22;56665;41.106;16.688;2023-09-08T04:28:44;22.92;67.41
69464;DHT22;56665;41.106;16.688;2023-09-08T04:31:48;22.96;67.16
69464;DHT22;56665;41.106;16.688;2023-09-08T04:34:52;22.95;67.37
69464;DHT22;56665;41.106;16.688;2023-09-08T04:37:56;22.96;67.01
69464;DHT22;56665;41.106;16.688;2023-09-08T04:40:59;23.00;66.95
69464;DHT22;56665;41.106;16.688;2023-09-08T04:44:05;23.05;66.93
69464;DHT22;56665;41.106;16.688;2023-09-08T04:47:08;23.11;66.75
69464;DHT22;56665;41.106;16.688;2023-09-08T04:50:12;23.19;66.49
69464;DHT22;56665;41.106;16.688;2023-09-08T04:53:16;23.25;66.54
69464;DHT22;56665;41.106;16.688;2023-09-08T04:56:20;23.32;66.28
69464;DHT22;56665;41.106;16.688;2023-09-08T04:59:25;23.40;66.23
69464;DHT22;56665;41.106;16.688;2023-09-08T05:02:30;23.53;65.77
69464;DHT22;56665;41.106;16.688;2023-09-08T05:05:34;23.60;65.63
69464;DHT22;56665;41.106;16.688;2023-09-08T05:08:38;23.71;65.51
69464;DHT22;56665;41.106;16.688;2023-09-08T05:11:42;23.78;65.07
69464;DHT22;56665;41.106;16.688;2023-09-08T05:14:45;23.85;65.13
69464;DHT22;56665;41.106;16.688;2023-09-08T05:17:50;23.95;65.07
69464;DHT22;56665;41.106;16.688;2023-09-08T05:20:56;24.14;64.80
69464;DHT22;56665;41.106;16.688;2023-09-08T05:24:00;24.26;64.39
69464;DHT22;56665;41.106;16.688;2023-09-08T05:27:04;24.46;64.11
69464;DHT22;56665;41.106;16.688;2023-09-08T05:30:08;24.59;63.74
69464;DHT22;56665;41.106;16.688;2023-09-08T05:33:13;24.74;63.37
69464;DHT22;56665;41.106;16.688;2023-09-08T05:36:17;24.88;63.05
69464;DHT22;56665;41.106;16.688;2023-09-08T05:39:21;25.07;62.87
69464;DHT22;56665;41.106;16.688;2023-09-08T05:42:25;25.28;62.29
69464;DHT22;56665;41.106;16.688;2023-09-08T05:45:31;25.45;61.80
69464;DHT22;56665;41.106;16.688;2023-09-08T05:48:36;25.65;61.43
69464;DHT22;56665;41.106;16.688;2023-09-08T05:51:39;25.85;61.36
69464;DHT22;56665;41.106;16.688;2023-09-08T05:54:43;26.04;61.15
69464;DHT22;56665;41.106;16.688;2023-09-08T05:57:48;26.30;60.81
69464;DHT22;56665;41.106;16.688;2023-09-08T06:00:54;26.52;60.39
69464;DHT22;56665;41.106;16.688;2023-09-08T06:03:58;26.68;59.98
69464;DHT22;56665;41.106;16.688;2023-09-08T06:07:05;26.87;59.36
69464;DHT22;56665;41.106;16.688;2023-09-08T06:10:10;27.08;59.18
69464;DHT22;56665;41.106;16.688;2023-09-08T06:13:15;27.18;59.03
69464;DHT22;56665;41.106;16.688;2023-09-08T06:16:20;27.24;59.21
69464;DHT22;56665;41.106;16.688;2023-09-08T06:19:24;27.33;59.23
69464;DHT22;56665;41.106;16.688;2023-09-08T06:22:30;27.45;59.55
69464;DHT22;56665;41.106;16.688;2023-09-08T06:25:34;27.59;59.66
69464;DHT22;56665;41.106;16.688;2023-09-08T06:28:37;27.80;59.14
69464;DHT22;56665;41.106;16.688;2023-09-08T06:31:41;27.95;58.86
69464;DHT22;56665;41.106;16.688;2023-09-08T06:34:45;28.02;58.92
69464;DHT22;56665;41.106;16.688;2023-09-08T06:37:49;28.17;58.88
69464;DHT22;56665;41.106;16.688;2023-09-08T06:40:53;28.32;58.74
69464;DHT22;56665;41.106;16.688;2023-09-08T06:43:57;28.43;58.73
69464;DHT22;56665;41.106;16.688;2023-09-08T06:47:05;28.65;58.19
69464;DHT22;56665;41.106;16.688;2023-09-08T06:50:10;28.72;58.61
69464;DHT22;56665;41.106;16.688;2023-09-08T06:53:14;28.83;58.15
69464;DHT22;56665;41.106;16.688;2023-09-08T06:56:19;28.94;58.18
69464;DHT22;56665;41.106;16.688;2023-09-08T06:59:22;29.14;58.45
69464;DHT22;56665;41.106;16.688;2023-09-08T07:02:26;29.30;57.87
69464;DHT22;56665;41.106;16.688;2023-09-08T07:05:32;29.30;57.96
69464;DHT22;56665;41.106;16.688;2023-09-08T07:08:35;29.41;58.24
69464;DHT22;56665;41.106;16.688;2023-09-08T07:11:39;29.44;58.36
69464;DHT22;56665;41.106;16.688;2023-09-08T07:14:46;29.45;58.48
69464;DHT22;56665;41.106;16.688;2023-09-08T07:17:53;29.54;58.49
69464;DHT22;56665;41.106;16.688;2023-09-08T07:20:57;29.57;58.67
69464;DHT22;56665;41.106;16.688;2023-09-08T07:24:02;29.52;58.64
69464;DHT22;56665;41.106;16.688;2023-09-08T07:27:06;29.93;57.96
69464;DHT22;56665;41.106;16.688;2023-09-08T07:30:12;30.09;57.85
69464;DHT22;56665;41.106;16.688;2023-09-08T07:33:16;30.21;57.45
69464;DHT22;56665;41.106;16.688;2023-09-08T07:36:22;30.34;57.38
69464;DHT22;56665;41.106;16.688;2023-09-08T07:39:26;30.63;56.69
69464;DHT22;56665;41.106;16.688;2023-09-08T07:42:30;30.82;56.51
69464;DHT22;56665;41.106;16.688;2023-09-08T07:45:35;30.54;57.22
69464;DHT22;56665;41.106;16.688;2023-09-08T07:48:39;30.87;56.33
69464;DHT22;56665;41.106;16.688;2023-09-08T07:51:42;30.98;55.97
69464;DHT22;56665;41.106;16.688;2023-09-08T07:54:46;31.18;55.19
69464;DHT22;56665;41.106;16.688;2023-09-08T07:57:51;31.23;55.08
69464;DHT22;56665;41.106;16.688;2023-09-08T08:00:58;31.23;54.91
69464;DHT22;56665;41.106;16.688;2023-09-08T08:04:03;31.60;54.31
69464;DHT22;56665;41.106;16.688;2023-09-08T08:07:07;31.73;53.79
69464;DHT22;56665;41.106;16.688;2023-09-08T08:10:12;31.90;53.48
69464;DHT22;56665;41.106;16.688;2023-09-08T08:13:17;32.04;53.53
69464;DHT22;56665;41.106;16.688;2023-09-08T08:16:21;32.03;53.37
69464;DHT22;56665;41.106;16.688;2023-09-08T08:19:24;32.08;53.08
69464;DHT22;56665;41.106;16.688;2023-09-08T08:22:28;32.05;53.39
69464;DHT22;56665;41.106;16.688;2023-09-08T08:25:32;31.78;53.74
69464;DHT22;56665;41.106;16.688;2023-09-08T08:28:36;31.98;53.27
69464;DHT22;56665;41.106;16.688;2023-09-08T08:31:40;32.25;52.94
69464;DHT22;56665;41.106;16.688;2023-09-08T08:38:20;33.03;51.62
69464;DHT22;56665;41.106;16.688;2023-09-08T08:41:24;33.19;51.40
69464;DHT22;56665;41.106;16.688;2023-09-08T08:44:27;33.77;50.19
69464;DHT22;56665;41.106;16.688;2023-09-08T08:47:33;34.52;48.89
69464;DHT22;56665;41.106;16.688;2023-09-08T08:50:37;35.42;47.54
69464;DHT22;56665;41.106;16.688;2023-09-08T08:53:41;35.35;47.42
69464;DHT22;56665;41.106;16.688;2023-09-08T08:56:46;35.44;47.63
69464;DHT22;56665;41.106;16.688;2023-09-08T08:59:50;35.06;48.40
69464;DHT22;56665;41.106;16.688;2023-09-08T09:02:57;34.87;48.48
69464;DHT22;56665;41.106;16.688;2023-09-08T09:06:02;34.36;49.52
69464;DHT22;56665;41.106;16.688;2023-09-08T09:09:07;34.32;49.45
69464;DHT22;56665;41.106;16.688;2023-09-08T09:12:11;34.19;49.56
69464;DHT22;56665;41.106;16.688;2023-09-08T09:15:15;33.81;49.99
69464;DHT22;56665;41.106;16.688;2023-09-08T09:18:19;33.46;50.41
69464;DHT22;56665;41.106;16.688;2023-09-08T09:21:23;33.37;50.35
69464;DHT22;56665;41.106;16.688;2023-09-08T09:24:35;33.19;50.61
69464;DHT22;56665;41.106;16.688;2023-09-08T09:27:50;33.03;50.86
69464;DHT22;56665;41.106;16.688;2023-09-08T09:30:53;32.78;50.97
69464;DHT22;56665;41.106;16.688;2023-09-08T09:34:04;32.76;51.65
69464;DHT22;56665;41.106;16.688;2023-09-08T09:37:08;33.04;51.08
69464;DHT22;56665;41.106;16.688;2023-09-08T09:40:13;33.35;50.38
69464;DHT22;56665;41.106;16.688;2023-09-08T09:43:20;33.54;49.92
69464;DHT22;56665;41.106;16.688;2023-09-08T09:46:27;33.65;49.24
69464;DHT22;56665;41.106;16.688;2023-09-08T09:49:31;33.77;49.08
69464;DHT22;56665;41.106;16.688;2023-09-08T09:52:38;34.01;48.93
69464;DHT22;56665;41.106;16.688;2023-09-08T09:55:45;33.98;48.58
69464;DHT22;56665;41.106;16.688;2023-09-08T09:58:49;34.04;47.35
69464;DHT22;56665;41.106;16.688;2023-09-08T10:01:54;34.09;47.86
69464;DHT22;56665;41.106;16.688;2023-09-08T10:05:10;34.35;47.47
69464;DHT22;56665;41.106;16.688;2023-09-08T10:08:15;34.64;46.77
69464;DHT22;56665;41.106;16.688;2023-09-08T10:11:21;34.40;47.34
69464;DHT22;56665;41.106;16.688;2023-09-08T10:14:26;34.36;48.33
69464;DHT22;56665;41.106;16.688;2023-09-08T10:17:33;34.35;48.61
69464;DHT22;56665;41.106;16.688;2023-09-08T10:20:38;34.22;49.00
69464;DHT22;56665;41.106;16.688;2023-09-08T10:23:47;34.06;49.73
69464;DHT22;56665;41.106;16.688;2023-09-08T10:27:04;34.28;48.20
69464;DHT22;56665;41.106;16.688;2023-09-08T10:30:08;33.90;48.54
69464;DHT22;56665;41.106;16.688;2023-09-08T10:33:14;33.78;48.78
69464;DHT22;56665;41.106;16.688;2023-09-08T10:36:18;33.82;48.48
69464;DHT22;56665;41.106;16.688;2023-09-08T10:39:30;33.62;47.03
69464;DHT22;56665;41.106;16.688;2023-09-08T10:42:34;33.84;46.15
69464;DHT22;56665;41.106;16.688;2023-09-08T10:45:39;33.72;46.73
69464;DHT22;56665;41.106;16.688;2023-09-08T10:48:43;33.54;47.28
69464;DHT22;56665;41.106;16.688;2023-09-08T10:51:48;33.80;47.66
69464;DHT22;56665;41.106;16.688;2023-09-08T10:54:53;33.58;47.37
69464;DHT22;56665;41.106;16.688;2023-09-08T10:57:57;33.16;48.76
69464;DHT22;56665;41.106;16.688;2023-09-08T11:01:02;33.24;48.40
69464;DHT22;56665;41.106;16.688;2023-09-08T11:04:08;33.49;46.87
69464;DHT22;56665;41.106;16.688;2023-09-08T11:07:13;33.50;47.75
69464;DHT22;56665;41.106;16.688;2023-09-08T11:10:17;33.53;48.22
69464;DHT22;56665;41.106;16.688;2023-09-08T11:13:21;33.58;48.10
69464;DHT22;56665;41.106;16.688;2023-09-08T11:16:26;33.44;48.19
69464;DHT22;56665;41.106;16.688;2023-09-08T11:19:48;33.80;47.63
69464;DHT22;56665;41.106;16.688;2023-09-08T11:22:55;33.92;47.66
69464;DHT22;56665;41.106;16.688;2023-09-08T11:25:59;33.78;47.79
69464;DHT22;56665;41.106;16.688;2023-09-08T11:29:03;33.65;47.31
69464;DHT22;56665;41.106;16.688;2023-09-08T11:32:07;33.84;47.05
69464;DHT22;56665;41.106;16.688;2023-09-08T11:35:12;33.94;47.51
69464;DHT22;56665;41.106;16.688;2023-09-08T11:38:17;34.06;47.40
69464;DHT22;56665;41.106;16.688;2023-09-08T11:41:20;33.98;47.50
69464;DHT22;56665;41.106;16.688;2023-09-08T11:44:26;33.67;48.19
69464;DHT22;56665;41.106;16.688;2023-09-08T11:47:32;33.24;48.53
69464;DHT22;56665;41.106;16.688;2023-09-08T11:50:36;33.12;49.17
69464;DHT22;56665;41.106;16.688;2023-09-08T11:53:41;33.27;48.24
69464;DHT22;56665;41.106;16.688;2023-09-08T11:56:45;33.33;47.77
69464;DHT22;56665;41.106;16.688;2023-09-08T11:59:49;33.07;46.95
69464;DHT22;56665;41.106;16.688;2023-09-08T12:02:55;33.26;47.07
69464;DHT22;56665;41.106;16.688;2023-09-08T12:05:59;33.24;48.77
69464;DHT22;56665;41.106;16.688;2023-09-08T12:09:07;33.07;48.62
69464;DHT22;56665;41.106;16.688;2023-09-08T12:12:12;32.65;48.79
69464;DHT22;56665;41.106;16.688;2023-09-08T12:15:35;32.38;49.59
69464;DHT22;56665;41.106;16.688;2023-09-08T12:18:40;32.23;49.95
69464;DHT22;56665;41.106;16.688;2023-09-08T12:21:59;32.23;50.93
69464;DHT22;56665;41.106;16.688;2023-09-08T12:25:08;32.27;49.99
69464;DHT22;56665;41.106;16.688;2023-09-08T12:28:12;32.23;49.89
69464;DHT22;56665;41.106;16.688;2023-09-08T12:31:17;31.91;50.95
69464;DHT22;56665;41.106;16.688;2023-09-08T12:34:21;31.98;52.09
69464;DHT22;56665;41.106;16.688;2023-09-08T12:37:25;31.93;51.78
69464;DHT22;56665;41.106;16.688;2023-09-08T12:40:37;32.18;51.17
69464;DHT22;56665;41.106;16.688;2023-09-08T12:43:41;32.27;51.51
69464;DHT22;56665;41.106;16.688;2023-09-08T12:46:44;32.14;51.65
69464;DHT22;56665;41.106;16.688;2023-09-08T12:49:48;32.36;50.59
69464;DHT22;56665;41.106;16.688;2023-09-08T12:52:52;32.44;50.44
69464;DHT22;56665;41.106;16.688;2023-09-08T12:55:56;32.21;51.80
69464;DHT22;56665;41.106;16.688;2023-09-08T12:59:00;32.45;51.03
69464;DHT22;56665;41.106;16.688;2023-09-08T13:02:04;32.45;50.15
69464;DHT22;56665;41.106;16.688;2023-09-08T13:05:08;32.21;50.07
69464;DHT22;56665;41.106;16.688;2023-09-08T13:08:11;32.34;50.78
69464;DHT22;56665;41.106;16.688;2023-09-08T13:11:18;32.28;51.01
69464;DHT22;56665;41.106;16.688;2023-09-08T13:14:22;32.08;50.47
69464;DHT22;56665;41.106;16.688;2023-09-08T13:17:26;32.13;51.18
69464;DHT22;56665;41.106;16.688;2023-09-08T13:20:29;32.23;51.17
69464;DHT22;56665;41.106;16.688;2023-09-08T13:23:34;32.27;50.71
69464;DHT22;56665;41.106;16.688;2023-09-08T13:26:37;32.29;51.23
69464;DHT22;56665;41.106;16.688;2023-09-08T13:29:41;32.38;50.50
69464;DHT22;56665;41.106;16.688;2023-09-08T13:32:45;32.46;51.63
69464;DHT22;56665;41.106;16.688;2023-09-08T13:35:49;32.20;51.54
69464;DHT22;56665;41.106;16.688;2023-09-08T13:38:55;31.97;52.41
69464;DHT22;56665;41.106;16.688;2023-09-08T13:42:03;31.46;53.20
69464;DHT22;56665;41.106;16.688;2023-09-08T13:45:08;31.42;52.97
69464;DHT22;56665;41.106;16.688;2023-09-08T13:48:12;31.53;53.22
69464;DHT22;56665;41.106;16.688;2023-09-08T13:51:19;31.70;51.96
69464;DHT22;56665;41.106;16.688;2023-09-08T13:54:31;32.04;50.61
69464;DHT22;56665;41.106;16.688;2023-09-08T13:57:34;32.05;50.94
69464;DHT22;56665;41.106;16.688;2023-09-08T14:00:39;31.88;50.17
69464;DHT22;56665;41.106;16.688;2023-09-08T14:03:47;32.03;49.78
69464;DHT22;56665;41.106;16.688;2023-09-08T14:06:55;32.15;49.15
69464;DHT22;56665;41.106;16.688;2023-09-08T14:10:00;32.05;48.89
69464;DHT22;56665;41.106;16.688;2023-09-08T14:13:08;32.00;49.31
69464;DHT22;56665;41.106;16.688;2023-09-08T14:16:11;32.04;48.64
69464;DHT22;56665;41.106;16.688;2023-09-08T14:19:16;32.00;48.16
69464;DHT22;56665;41.106;16.688;2023-09-08T14:22:20;31.76;49.53
69464;DHT22;56665;41.106;16.688;2023-09-08T14:25:24;31.70;50.82
69464;DHT22;56665;41.106;16.688;2023-09-08T14:28:28;31.50;51.81
69464;DHT22;56665;41.106;16.688;2023-09-08T14:31:32;31.32;53.05
69464;DHT22;56665;41.106;16.688;2023-09-08T14:34:37;31.14;53.13
69464;DHT22;56665;41.106;16.688;2023-09-08T14:37:41;30.88;53.68
69464;DHT22;56665;41.106;16.688;2023-09-08T14:40:57;30.89;53.52
69464;DHT22;56665;41.106;16.688;2023-09-08T14:44:01;30.68;53.20
69464;DHT22;56665;41.106;16.688;2023-09-08T14:47:08;30.53;51.59
69464;DHT22;56665;41.106;16.688;2023-09-08T14:50:12;30.46;53.33
69464;DHT22;56665;41.106;16.688;2023-09-08T14:53:17;30.34;53.66
69464;DHT22;56665;41.106;16.688;2023-09-08T14:56:21;30.09;54.70
69464;DHT22;56665;41.106;16.688;2023-09-08T14:59:25;30.16;53.29
69464;DHT22;56665;41.106;16.688;2023-09-08T15:02:29;30.12;52.81
69464;DHT22;56665;41.106;16.688;2023-09-08T15:05:34;30.03;53.27
69464;DHT22;56665;41.106;16.688;2023-09-08T15:08:41;29.95;54.58
69464;DHT22;56665;41.106;16.688;2023-09-08T15:11:46;29.93;54.87
69464;DHT22;56665;41.106;16.688;2023-09-08T15:14:50;29.84;54.00
69464;DHT22;56665;41.106;16.688;2023-09-08T15:17:54;29.72;54.42
69464;DHT22;56665;41.106;16.688;2023-09-08T15:20:58;29.51;56.68
69464;DHT22;56665;41.106;16.688;2023-09-08T15:24:01;29.37;57.65
69464;DHT22;56665;41.106;16.688;2023-09-08T15:27:08;29.24;58.44
69464;DHT22;56665;41.106;16.688;2023-09-08T15:30:13;29.06;57.98
69464;DHT22;56665;41.106;16.688;2023-09-08T15:33:18;28.83;60.32
69464;DHT22;56665;41.106;16.688;2023-09-08T15:36:29;28.69;62.20
69464;DHT22;56665;41.106;16.688;2023-09-08T15:39:33;28.46;62.62
69464;DHT22;56665;41.106;16.688;2023-09-08T15:42:37;28.39;62.14
69464;DHT22;56665;41.106;16.688;2023-09-08T15:45:42;28.36;62.04
69464;DHT22;56665;41.106;16.688;2023-09-08T15:48:45;28.32;61.90
69464;DHT22;56665;41.106;16.688;2023-09-08T15:51:51;28.28;62.92
69464;DHT22;56665;41.106;16.688;2023-09-08T15:54:54;28.14;62.73
69464;DHT22;56665;41.106;16.688;2023-09-08T15:57:58;28.01;62.82
69464;DHT22;56665;41.106;16.688;2023-09-08T16:01:03;27.92;63.45
69464;DHT22;56665;41.106;16.688;2023-09-08T16:04:10;27.82;64.18
69464;DHT22;56665;41.106;16.688;2023-09-08T16:07:14;27.78;63.73
69464;DHT22;56665;41.106;16.688;2023-09-08T16:10:17;27.77;62.46
69464;DHT22;56665;41.106;16.688;2023-09-08T16:13:21;27.71;62.81
69464;DHT22;56665;41.106;16.688;2023-09-08T16:16:25;27.61;63.20
69464;DHT22;56665;41.106;16.688;2023-09-08T16:19:29;27.56;63.80
69464;DHT22;56665;41.106;16.688;2023-09-08T16:22:33;27.59;63.47
69464;DHT22;56665;41.106;16.688;2023-09-08T16:25:37;27.50;62.05
69464;DHT22;56665;41.106;16.688;2023-09-08T16:28:42;27.45;62.18
69464;DHT22;56665;41.106;16.688;2023-09-08T16:31:46;27.39;62.63
69464;DHT22;56665;41.106;16.688;2023-09-08T16:34:50;27.32;63.51
69464;DHT22;56665;41.106;16.688;2023-09-08T16:37:55;27.32;64.40
69464;DHT22;56665;41.106;16.688;2023-09-08T16:40:59;27.18;64.72
69464;DHT22;56665;41.106;16.688;2023-09-08T16:44:02;27.08;64.73
69464;DHT22;56665;41.106;16.688;2023-09-08T16:47:06;27.09;65.53
69464;DHT22;56665;41.106;16.688;2023-09-08T16:50:10;27.06;64.89
69464;DHT22;56665;41.106;16.688;2023-09-08T16:53:14;27.06;64.98
69464;DHT22;56665;41.106;16.688;2023-09-08T16:56:18;27.03;65.51
69464;DHT22;56665;41.106;16.688;2023-09-08T16:59:27;26.95;65.16
69464;DHT22;56665;41.106;16.688;2023-09-08T17:02:31;26.84;65.73
69464;DHT22;56665;41.106;16.688;2023-09-08T17:05:35;26.77;66.14
69464;DHT22;56665;41.106;16.688;2023-09-08T17:08:39;26.80;66.59
69464;DHT22;56665;41.106;16.688;2023-09-08T17:11:43;26.75;66.78
69464;DHT22;56665;41.106;16.688;2023-09-08T17:14:46;26.77;66.18
69464;DHT22;56665;41.106;16.688;2023-09-08T17:17:58;26.72;66.57
69464;DHT22;56665;41.106;16.688;2023-09-08T17:21:05;26.72;66.44
69464;DHT22;56665;41.106;16.688;2023-09-08T17:24:14;26.72;66.76
69464;DHT22;56665;41.106;16.688;2023-09-08T17:27:18;26.71;67.27
69464;DHT22;56665;41.106;16.688;2023-09-08T17:30:25;26.71;67.84
69464;DHT22;56665;41.106;16.688;2023-09-08T17:33:28;26.68;67.34
69464;DHT22;56665;41.106;16.688;2023-09-08T17:36:32;26.58;67.74
69464;DHT22;56665;41.106;16.688;2023-09-08T17:39:37;26.57;67.92
69464;DHT22;56665;41.106;16.688;2023-09-08T17:42:41;26.52;68.40
69464;DHT22;56665;41.106;16.688;2023-09-08T17:45:45;26.55;68.31
69464;DHT22;56665;41.106;16.688;2023-09-08T17:48:48;26.57;68.61
69464;DHT22;56665;41.106;16.688;2023-09-08T17:51:52;26.48;68.98
69464;DHT22;56665;41.106;16.688;2023-09-08T17:54:57;26.55;69.03
69464;DHT22;56665;41.106;16.688;2023-09-08T17:58:04;26.52;69.31
69464;DHT22;56665;41.106;16.688;2023-09-08T18:01:08;26.55;69.13
69464;DHT22;56665;41.106;16.688;2023-09-08T18:04:12;26.62;69.24
69464;DHT22;56665;41.106;16.688;2023-09-08T18:07:15;26.65;68.95
69464;DHT22;56665;41.106;16.688;2023-09-08T18:10:19;26.62;69.82
69464;DHT22;56665;41.106;16.688;2023-09-08T18:13:23;26.57;68.86
69464;DHT22;56665;41.106;16.688;2023-09-08T18:16:28;26.57;68.72
69464;DHT22;56665;41.106;16.688;2023-09-08T18:19:32;26.55;68.43
69464;DHT22;56665;41.106;16.688;2023-09-08T18:22:40;26.54;68.43
69464;DHT22;56665;41.106;16.688;2023-09-08T18:25:44;26.55;68.13
69464;DHT22;56665;41.106;16.688;2023-09-08T18:28:49;26.61;67.66
69464;DHT22;56665;41.106;16.688;2023-09-08T18:31:53;26.62;67.61
69464;DHT22;56665;41.106;16.688;2023-09-08T18:35:05;26.62;66.64
69464;DHT22;56665;41.106;16.688;2023-09-08T18:38:09;26.61;66.17
69464;DHT22;56665;41.106;16.688;2023-09-08T18:41:14;26.62;66.00
69464;DHT22;56665;41.106;16.688;2023-09-08T18:44:20;26.62;66.46
69464;DHT22;56665;41.106;16.688;2023-09-08T18:47:24;26.58;66.14
69464;DHT22;56665;41.106;16.688;2023-09-08T18:50:28;26.57;66.17
69464;DHT22;56665;41.106;16.688;2023-09-08T18:53:32;26.52;66.76
69464;DHT22;56665;41.106;16.688;2023-09-08T18:56:37;26.47;67.14
69464;DHT22;56665;41.106;16.688;2023-09-08T18:59:41;26.48;67.97
69464;DHT22;56665;41.106;16.688;2023-09-08T19:02:45;26.45;67.36
69464;DHT22;56665;41.106;16.688;2023-09-08T19:05:49;26.41;67.51
69464;DHT22;56665;41.106;16.688;2023-09-08T19:08:53;26.40;67.50
69464;DHT22;56665;41.106;16.688;2023-09-08T19:11:57;26.40;67.60
69464;DHT22;56665;41.106;16.688;2023-09-08T19:15:00;26.30;68.14